Time;durP1;ratioP1;P1;durP2;ratioP2;P2;SDS_P1;SDS_P2;PMS_P1;PMS_P2;Temp;Humidity;BMP_temperature;BMP_pressure;BME280_temperature;BME280_humidity;BME280_pressure;Samples;Min_cycle;Max_cycle;Signal;HPM_P1;HPM_P2
2021/08/18 00:01:50;;;;;;;;;5.75;5.00;;;;;18.01;64.64;101284.63;5056687;28;46727;-85
2021/08/18 00:04:15;;;;;;;;;5.75;5.00;;;;;17.99;64.60;101291.03;5056463;28;45918;-85
2021/08/18 00:06:41;;;;;;;;;5.50;5.50;;;;;17.80;64.72;101253.94;5055948;28;45583;-84
2021/08/18 00:12:27;;;;;;;;;5.00;5.00;;;;;17.79;64.70;101263.69;5053947;27;45787;-86
2021/08/18 00:14:53;;;;;;;;;5.50;5.50;;;;;17.84;65.34;101269.41;5037663;28;47071;-86
2021/08/18 00:17:19;;;;;;;;;5.50;5.00;;;;;17.97;65.21;101295.66;5055280;28;45865;-84
2021/08/18 00:19:45;;;;;;;;;8.25;4.75;;;;;17.82;65.32;101273.16;5038497;28;45776;-85
2021/08/18 00:22:10;;;;;;;;;5.50;4.00;;;;;17.93;65.48;101286.28;5037808;28;46208;-85
2021/08/18 00:24:37;;;;;;;;;6.00;5.00;;;;;17.91;65.60;101288.25;5056932;28;45570;-84
2021/08/18 00:27:03;;;;;;;;;5.00;4.00;;;;;17.87;65.10;101278.88;5057895;28;45624;-86
2021/08/18 00:29:28;;;;;;;;;5.50;5.50;;;;;17.77;65.09;101265.66;5058718;28;45828;-88
2021/08/18 00:31:54;;;;;;;;;5.50;5.00;;;;;17.88;65.23;101285.88;5057555;28;46606;-91
2021/08/18 00:34:19;;;;;;;;;5.25;3.25;;;;;17.57;64.82;101227.69;5057003;28;45838;-88
2021/08/18 00:36:45;;;;;;;;;4.00;4.00;;;;;17.83;65.15;101277.50;5056995;28;45621;-89
2021/08/18 00:42:33;;;;;;;;;6.00;5.00;;;;;17.85;65.34;101288.81;5057336;28;45981;-87
2021/08/18 00:44:58;;;;;;;;;5.00;4.00;;;;;17.75;65.95;101264.97;5056877;28;45446;-87
2021/08/18 00:47:24;;;;;;;;;4.25;4.25;;;;;17.62;65.81;101251.13;5055821;28;45590;-86
2021/08/18 00:49:49;;;;;;;;;7.00;5.25;;;;;17.79;65.34;101278.75;5056345;28;45659;-87
2021/08/18 00:52:14;;;;;;;;;5.25;5.00;;;;;17.80;66.15;101277.78;5056034;28;46854;-86
2021/08/18 00:54:40;;;;;;;;;5.25;4.00;;;;;17.78;65.84;101282.38;5056177;28;45527;-85
2021/08/18 00:57:06;;;;;;;;;5.50;4.25;;;;;17.77;66.00;101281.53;5056286;28;45531;-86
2021/08/18 00:59:33;;;;;;;;;7.00;5.00;;;;;17.76;65.78;101287.81;5058267;28;45618;-90
2021/08/18 01:01:59;;;;;;;;;5.00;3.25;;;;;17.75;66.28;101269.44;5060032;28;45644;-90
2021/08/18 01:04:25;;;;;;;;;7.50;6.50;;;;;17.52;65.77;101245.81;5059078;28;45571;-90
2021/08/18 01:06:51;;;;;;;;;5.00;5.00;;;;;17.75;65.74;101274.72;5058256;28;45677;-87
2021/08/18 01:12:40;;;;;;;;;5.25;4.00;;;;;17.70;65.90;101272.50;5056196;28;45940;-83
2021/08/18 01:15:15;;;;;;;;;5.00;4.00;;;;;17.77;65.63;101280.72;5062949;28;45581;-87
2021/08/18 01:17:52;;;;;;;;;7.75;4.00;;;;;17.68;66.20;101260.34;5063767;28;45684;-84
2021/08/18 01:20:22;;;;;;;;;5.00;4.00;;;;;17.76;66.12;101266.63;5050675;28;45556;-86
2021/08/18 01:22:48;;;;;;;;;5.00;4.50;;;;;17.58;65.61;101250.56;5069291;28;45802;-87
2021/08/18 01:25:13;;;;;;;;;4.25;3.75;;;;;17.67;66.25;101267.47;5077821;28;47749;-87
2021/08/18 01:27:46;;;;;;;;;6.50;5.50;;;;;17.69;65.69;101262.88;5061147;28;45547;-84
2021/08/18 01:30:12;;;;;;;;;5.75;5.00;;;;;17.75;65.96;101264.97;5040102;28;45919;-86
2021/08/18 01:32:54;;;;;;;;;1.00;0.75;;;;;17.76;66.15;101271.09;5076859;28;46651;-87
2021/08/18 01:35:25;;;;;;;;;5.00;4.25;;;;;17.51;65.66;101222.09;5062171;28;45572;-87
2021/08/18 01:37:52;;;;;;;;;4.50;2.25;;;;;17.50;65.78;101217.75;5057215;28;45526;-89
2021/08/18 01:40:18;;;;;;;;;6.00;5.00;;;;;17.51;65.70;101220.28;5077814;28;45597;-88
2021/08/18 01:42:44;;;;;;;;;6.00;5.00;;;;;17.58;65.88;101233.81;5073078;28;47546;-86
2021/08/18 01:45:11;;;;;;;;;5.25;5.25;;;;;17.76;65.82;101268.47;5058412;28;45642;-86
2021/08/18 01:47:37;;;;;;;;;4.00;4.00;;;;;17.45;65.75;101209.38;5057447;28;45613;-84
2021/08/18 01:50:04;;;;;;;;;4.00;3.50;;;;;17.55;65.51;101220.81;5070104;28;45177;-84
2021/08/18 01:52:30;;;;;;;;;4.00;3.00;;;;;17.69;65.63;101249.63;5041779;28;48236;-85
2021/08/18 01:54:55;;;;;;;;;5.00;4.00;;;;;17.74;65.67;101244.72;5052693;28;47720;-85
2021/08/18 01:57:21;;;;;;;;;5.00;4.25;;;;;17.58;65.58;101216.09;5069559;28;45720;-85
2021/08/18 01:59:46;;;;;;;;;5.25;4.00;;;;;17.65;65.94;101239.44;5037711;28;45531;-87
2021/08/18 02:02:11;;;;;;;;;4.00;3.00;;;;;17.55;65.73;101213.72;5055034;28;46553;-84
2021/08/18 02:04:37;;;;;;;;;5.00;3.25;;;;;17.60;65.85;101227.41;5054703;28;45634;-85
2021/08/18 02:07:03;;;;;;;;;3.00;3.00;;;;;17.56;65.65;101214.56;5036642;28;46075;-86
2021/08/18 02:12:51;;;;;;;;;3.75;3.25;;;;;17.74;65.86;101250.03;5054993;28;46038;-86
2021/08/18 02:15:19;;;;;;;;;6.75;3.25;;;;;17.67;66.16;101235.66;5055891;28;46568;-86
2021/08/18 02:17:45;;;;;;;;;4.75;4.50;;;;;17.78;65.66;101247.94;5037960;28;46016;-86
2021/08/18 02:20:14;;;;;;;;;4.00;3.00;;;;;17.57;65.82;101222.38;5038254;28;45546;-86
2021/08/18 02:22:39;;;;;;;;;3.50;3.50;;;;;17.61;65.82;101222.94;5037874;28;47720;-85
2021/08/18 02:25:06;;;;;;;;;5.00;4.00;;;;;17.70;66.43;101231.91;5038585;28;46963;-86
2021/08/18 02:27:31;;;;;;;;;4.25;3.50;;;;;17.73;66.02;101242.22;5038199;28;45727;-87
2021/08/18 02:29:57;;;;;;;;;4.75;3.75;;;;;17.68;65.52;101232.03;5038825;28;45922;-86
2021/08/18 02:32:22;;;;;;;;;4.00;3.25;;;;;17.55;65.92;101211.06;5039877;28;48362;-85
2021/08/18 02:34:48;;;;;;;;;4.50;4.00;;;;;17.60;65.43;101211.50;5039305;28;45928;-90
2021/08/18 02:37:13;;;;;;;;;5.00;4.00;;;;;17.54;65.54;101200.63;5064901;28;45630;-87
2021/08/18 02:43:01;;;;;;;;;4.75;4.00;;;;;17.63;66.15;101207.75;5070162;28;45703;-87
2021/08/18 02:45:28;;;;;;;;;5.00;4.00;;;;;17.62;65.73;101206.09;5046847;28;46133;-86
2021/08/18 02:47:54;;;;;;;;;5.00;5.00;;;;;17.56;65.97;101202.16;5061490;28;45700;-84
2021/08/18 02:50:22;;;;;;;;;4.75;4.25;;;;;17.76;65.55;101234.00;5064365;28;45540;-86
2021/08/18 02:52:47;;;;;;;;;3.50;3.00;;;;;17.75;66.04;101235.81;5046549;28;49048;-85
2021/08/18 02:55:13;;;;;;;;;5.25;4.00;;;;;17.41;65.93;101176.22;5076631;28;47386;-86
2021/08/18 02:57:39;;;;;;;;;3.75;3.00;;;;;17.74;65.89;101239.44;5047152;28;45559;-86
2021/08/18 03:00:06;;;;;;;;;4.25;4.00;;;;;17.74;66.24;101234.13;5046626;28;45539;-86
2021/08/18 03:02:32;;;;;;;;;3.25;3.00;;;;;17.55;66.16;101200.47;5047583;28;47762;-88
2021/08/18 03:04:59;;;;;;;;;3.50;3.50;;;;;17.65;65.91;101211.13;5068213;28;45547;-86
2021/08/18 03:07:24;;;;;;;;;5.00;4.00;;;;;17.73;66.04;101237.75;5089264;28;45409;-86
2021/08/18 03:13:12;;;;;;;;;4.50;4.50;;;;;17.70;66.46;101227.44;5076517;28;45451;-85
2021/08/18 03:15:37;;;;;;;;;4.75;4.00;;;;;17.55;66.08;101207.56;5096800;28;46405;-87
2021/08/18 03:18:03;;;;;;;;;3.75;3.75;;;;;17.54;66.00;101198.78;5088540;28;45506;-88
2021/08/18 03:20:28;;;;;;;;;4.75;4.00;;;;;17.53;66.48;101194.50;5080421;28;45649;-85
2021/08/18 03:22:53;;;;;;;;;4.75;3.75;;;;;17.65;66.14;101215.59;5099091;28;47437;-86
2021/08/18 03:25:20;;;;;;;;;7.00;5.00;;;;;17.73;66.27;101224.50;5083834;28;45226;-84
2021/08/18 03:27:45;;;;;;;;;4.25;3.50;;;;;17.51;65.63;101191.13;5083606;28;45535;-87
2021/08/18 03:30:12;;;;;;;;;5.75;5.00;;;;;17.76;65.78;101218.09;5060656;28;45359;-87
2021/08/18 03:32:37;;;;;;;;;4.50;4.00;;;;;17.48;65.92;101186.13;5062250;28;47568;-87
2021/08/18 03:35:03;;;;;;;;;6.00;3.50;;;;;17.39;66.73;101168.38;5078798;28;45490;-87
2021/08/18 03:37:29;;;;;;;;;4.75;4.00;;;;;17.32;66.39;101161.16;5080168;28;45657;-88
2021/08/18 03:43:16;;;;;;;;;5.00;4.75;;;;;17.69;66.71;101222.28;5061120;28;45581;-86
2021/08/18 03:45:41;;;;;;;;;6.00;5.50;;;;;17.50;66.20;101199.22;5062374;28;46426;-87
2021/08/18 03:48:06;;;;;;;;;5.50;4.00;;;;;17.46;66.33;101188.06;5067799;28;45624;-87
2021/08/18 03:50:32;;;;;;;;;4.50;4.00;;;;;17.54;65.88;101213.88;5060318;28;45586;-84
2021/08/18 03:52:57;;;;;;;;;3.00;3.00;;;;;17.35;66.50;101182.91;5040893;28;47468;-85
2021/08/18 03:58:44;;;;;;;;;4.00;4.00;;;;;17.59;66.43;101207.22;5059280;28;45649;-86
2021/08/18 04:01:10;;;;;;;;;5.75;5.50;;;;;17.66;66.16;101226.03;5069650;28;45735;-86
2021/08/18 04:03:36;;;;;;;;;8.00;7.00;;;;;17.66;66.60;101219.88;5062721;28;45578;-86
2021/08/18 04:06:02;;;;;;;;;7.25;6.00;;;;;17.65;66.81;101223.53;5060201;28;46501;-88
2021/08/18 04:08:28;;;;;;;;;6.25;6.00;;;;;17.50;66.51;101201.84;5061722;28;45578;-86
2021/08/18 04:10:53;;;;;;;;;6.00;4.50;;;;;17.36;66.92;101173.13;5044360;28;45999;-85
2021/08/18 04:13:18;;;;;;;;;6.25;5.00;;;;;17.53;66.36;101213.03;5075893;28;47839;-87
2021/08/18 04:15:44;;;;;;;;;6.75;5.75;;;;;17.39;66.61;101183.44;5059487;28;45591;-87
2021/08/18 04:18:12;;;;;;;;;5.00;5.00;;;;;17.67;66.66;101229.50;5071766;28;46142;-85
2021/08/18 04:20:38;;;;;;;;;6.00;5.00;;;;;17.51;66.71;101200.88;5072280;28;45888;-85
2021/08/18 04:23:04;;;;;;;;;5.75;5.75;;;;;17.52;66.50;101191.97;5038296;28;48386;-85
2021/08/18 04:28:51;;;;;;;;;5.25;4.00;;;;;17.68;66.59;101224.09;5056490;28;45589;-85
2021/08/18 04:31:16;;;;;;;;;5.00;5.00;;;;;17.59;66.84;101212.50;5056523;28;45776;-85
2021/08/18 04:33:41;;;;;;;;;4.00;4.00;;;;;17.46;67.02;101193.38;5037717;28;47276;-87
2021/08/18 04:36:07;;;;;;;;;6.00;5.00;;;;;17.55;66.49;101210.22;5072708;28;46445;-85
2021/08/18 04:38:32;;;;;;;;;6.50;5.00;;;;;17.69;66.39;101233.72;5057063;28;45733;-87
2021/08/18 04:40:57;;;;;;;;;4.50;4.50;;;;;17.46;66.91;101197.81;5057954;28;45619;-84
2021/08/18 04:43:23;;;;;;;;;6.00;5.75;;;;;17.47;66.73;101197.69;5038589;28;48631;-86
2021/08/18 04:45:48;;;;;;;;;6.25;5.25;;;;;17.55;66.77;101213.72;5038108;28;47540;-86
2021/08/18 04:48:14;;;;;;;;;5.00;5.00;;;;;17.46;67.04;101203.13;5055830;28;45965;-83
2021/08/18 04:50:39;;;;;;;;;4.00;4.00;;;;;17.36;67.18;101181.94;5059030;28;45516;-85
2021/08/18 04:53:11;;;;;;;;;5.50;5.50;;;;;17.65;67.26;101234.13;5062942;28;46455;-84
2021/08/18 04:58:59;;;;;;;;;8.25;6.75;;;;;17.61;67.19;101218.50;5063887;28;45670;-86
2021/08/18 05:01:25;;;;;;;;;8.00;7.00;;;;;17.55;67.33;101220.81;5060072;28;45609;-86
2021/08/18 05:03:50;;;;;;;;;5.75;5.00;;;;;17.46;66.97;101208.41;5055197;28;45590;-86
2021/08/18 05:06:15;;;;;;;;;5.25;5.00;;;;;17.43;67.63;101193.66;5056352;28;45709;-86
2021/08/18 05:08:41;;;;;;;;;7.00;6.25;;;;;17.32;67.70;101177.06;5057866;28;45552;-85
2021/08/18 05:11:06;;;;;;;;;7.00;6.75;;;;;17.32;67.45;101185.00;5056280;28;45634;-83
2021/08/18 05:13:31;;;;;;;;;5.75;5.75;;;;;17.42;67.78;101204.38;5055926;28;46714;-85
2021/08/18 05:15:57;;;;;;;;;6.00;6.00;;;;;17.46;67.72;101203.13;5037759;28;47185;-85
2021/08/18 05:18:22;;;;;;;;;5.75;5.75;;;;;17.47;67.35;101220.69;5055351;28;45575;-86
2021/08/18 05:20:47;;;;;;;;;5.00;4.50;;;;;17.46;67.63;101222.50;5056685;28;45718;-87
2021/08/18 05:23:13;;;;;;;;;6.25;6.25;;;;;17.53;67.57;101231.59;5056402;28;45732;-88
2021/08/18 05:29:00;;;;;;;;;5.00;5.00;;;;;17.47;67.99;101231.28;5056781;28;45598;-85
2021/08/18 05:31:25;;;;;;;;;6.50;5.25;;;;;17.51;67.81;101235.34;5057152;28;45755;-86
2021/08/18 05:33:51;;;;;;;;;6.50;6.00;;;;;17.50;67.71;101229.19;5057001;28;46476;-88
2021/08/18 05:36:16;;;;;;;;;5.00;5.00;;;;;17.51;67.99;101232.69;5071530;28;45610;-85
2021/08/18 05:38:42;;;;;;;;;4.50;4.50;;;;;17.34;68.10;101207.72;5071250;28;46096;-84
2021/08/18 05:41:08;;;;;;;;;7.25;6.00;;;;;17.25;67.81;101194.47;5071505;28;45866;-85
2021/08/18 05:43:34;;;;;;;;;6.50;5.50;;;;;17.50;67.52;101238.94;5069946;28;48138;-85
2021/08/18 05:45:59;;;;;;;;;4.00;4.00;;;;;17.38;67.78;101216.22;5054432;28;45666;-82
2021/08/18 05:48:26;;;;;;;;;5.00;5.00;;;;;17.25;68.02;101197.09;5054642;28;45500;-84
2021/08/18 05:50:51;;;;;;;;;7.50;6.50;;;;;17.45;68.35;101239.38;5054659;28;45523;-85
2021/08/18 05:53:18;;;;;;;;;7.75;6.50;;;;;17.36;67.91;101232.25;5054553;28;45613;-86
2021/08/18 05:59:05;;;;;;;;;6.25;6.00;;;;;17.36;67.96;101226.13;5054526;28;45434;-85
2021/08/18 06:01:30;;;;;;;;;6.00;5.75;;;;;17.17;68.40;101195.13;5036680;28;46009;-85
2021/08/18 06:03:56;;;;;;;;;6.00;6.00;;;;;17.23;68.05;101194.59;5054669;28;45508;-83
2021/08/18 06:06:21;;;;;;;;;5.25;5.00;;;;;17.32;67.78;101211.47;5055369;28;45587;-86
2021/08/18 06:08:46;;;;;;;;;5.25;5.00;;;;;17.46;67.80;101241.06;5057152;28;45581;-89
2021/08/18 06:11:11;;;;;;;;;7.00;5.75;;;;;17.52;68.47;101256.41;5038080;28;45618;-88
2021/08/18 06:13:37;;;;;;;;;6.50;6.00;;;;;17.42;68.13;101230.88;5036515;28;47879;-86
2021/08/18 06:16:03;;;;;;;;;4.75;4.75;;;;;17.37;68.20;101228.63;5055632;28;46125;-87
2021/08/18 06:18:28;;;;;;;;;6.25;6.00;;;;;17.30;68.18;101218.72;5059998;28;45756;-83
2021/08/18 06:20:53;;;;;;;;;6.00;6.00;;;;;17.35;68.53;101221.78;5060111;28;45586;-86
2021/08/18 06:23:21;;;;;;;;;6.75;6.25;;;;;17.54;68.09;101259.72;5060202;28;46407;-85
2021/08/18 06:29:07;;;;;;;;;5.25;5.25;;;;;17.59;68.26;101262.88;5059273;28;45598;-86
2021/08/18 06:31:34;;;;;;;;;7.00;6.00;;;;;17.58;68.26;101250.56;5041294;28;45653;-88
2021/08/18 06:34:00;;;;;;;;;7.00;5.75;;;;;17.46;68.07;101237.56;5057465;28;46338;-84
2021/08/18 06:36:25;;;;;;;;;5.25;4.50;;;;;17.53;68.26;101241.34;5056753;28;46548;-84
2021/08/18 06:38:50;;;;;;;;;5.75;4.75;;;;;17.41;67.96;101226.53;5057508;28;45596;-85
2021/08/18 06:44:38;;;;;;;;;7.25;6.50;;;;;17.61;68.42;101271.50;5059208;28;46049;-84
2021/08/18 06:47:04;;;;;;;;;5.50;5.50;;;;;17.61;68.05;101257.41;5040592;28;49038;-84
2021/08/18 06:49:30;;;;;;;;;7.00;7.00;;;;;17.46;68.26;101240.22;5058871;28;45658;-84
2021/08/18 06:51:55;;;;;;;;;7.00;6.25;;;;;17.35;68.49;101222.63;5058524;28;45597;-84
2021/08/18 06:54:21;;;;;;;;;7.00;5.75;;;;;17.57;68.59;101258.63;5073446;28;47934;-84
2021/08/18 06:56:46;;;;;;;;;6.00;6.00;;;;;17.47;68.51;101233.94;5039339;28;46004;-84
2021/08/18 06:59:11;;;;;;;;;6.25;6.25;;;;;17.57;67.99;101248.03;5039528;28;45529;-84
2021/08/18 07:01:37;;;;;;;;;8.25;7.50;;;;;17.70;68.32;101266.34;5040098;28;45960;-83
2021/08/18 07:04:05;;;;;;;;;6.25;6.00;;;;;17.44;68.53;101213.84;5074034;28;47551;-85
2021/08/18 07:06:31;;;;;;;;;7.75;7.00;;;;;17.75;68.51;101270.25;5059938;28;45997;-85
2021/08/18 07:08:56;;;;;;;;;7.00;5.75;;;;;17.72;68.00;101259.91;5060274;28;45662;-86
2021/08/18 07:14:43;;;;;;;;;7.25;6.25;;;;;17.67;68.19;101246.25;5055533;27;45701;-86
2021/08/18 07:17:09;;;;;;;;;5.75;5.75;;;;;17.61;68.42;101238.84;5056723;28;46527;-83
2021/08/18 07:19:34;;;;;;;;;8.00;7.75;;;;;17.76;68.47;101256.00;5071975;28;45541;-83
2021/08/18 07:21:59;;;;;;;;;7.00;7.00;;;;;17.71;68.58;101239.69;5057122;28;45547;-85
2021/08/18 07:24:25;;;;;;;;;8.75;7.50;;;;;17.81;68.25;101260.91;5039546;28;48467;-84
2021/08/18 07:26:52;;;;;;;;;6.25;6.00;;;;;17.56;68.18;101207.44;5057187;28;45649;-82
2021/08/18 07:29:17;;;;;;;;;4.50;4.25;;;;;17.77;68.41;101241.78;5057261;28;45885;-86
2021/08/18 07:31:43;;;;;;;;;5.50;5.50;;;;;17.67;68.02;101214.44;5039944;28;45945;-85
2021/08/18 07:34:08;;;;;;;;;8.00;6.25;;;;;17.76;68.16;101215.44;5066409;28;45689;-84
2021/08/18 07:36:33;;;;;;;;;7.75;6.50;;;;;17.93;67.60;101236.75;5050916;28;47299;-86
2021/08/18 07:38:59;;;;;;;;;5.25;5.00;;;;;17.79;67.81;101218.63;5051936;28;45530;-84
2021/08/18 07:44:47;;;;;;;;;4.75;4.25;;;;;18.10;67.37;101250.28;5056415;28;45949;-85
2021/08/18 07:47:12;;;;;;;;;5.50;5.00;;;;;18.11;67.94;101231.56;5071547;28;47327;-84
2021/08/18 07:49:37;;;;;;;;;6.25;5.25;;;;;18.11;67.68;101236.88;5056559;28;45798;-85
2021/08/18 07:52:07;;;;;;;;;7.25;6.00;;;;;17.97;67.56;101198.41;5058264;28;45669;-85
2021/08/18 07:54:35;;;;;;;;;5.75;5.00;;;;;18.27;67.53;101250.38;5038315;28;48808;-84
2021/08/18 07:57:00;;;;;;;;;5.00;4.00;;;;;18.14;67.20;101223.31;5037530;28;47423;-85
2021/08/18 07:59:26;;;;;;;;;5.00;4.00;;;;;18.36;67.57;101244.22;5071803;28;46054;-85
2021/08/18 08:01:51;;;;;;;;;6.75;5.00;;;;;18.33;67.40;101239.22;5038259;28;45804;-83
2021/08/18 08:04:17;;;;;;;;;4.50;4.50;;;;;18.45;67.07;101239.88;5056226;28;46477;-84
2021/08/18 08:06:42;;;;;;;;;4.00;4.00;;;;;18.33;66.76;101233.91;5070965;28;47409;-83
2021/08/18 08:09:07;;;;;;;;;4.00;3.50;;;;;18.21;66.97;101192.59;5055994;28;45853;-83
2021/08/18 08:14:54;;;;;;;;;4.50;4.00;;;;;18.51;66.69;101243.78;5056369;28;46411;-88
2021/08/18 08:17:20;;;;;;;;;6.00;4.00;;;;;18.55;66.69;101242.53;5057811;28;45761;-86
2021/08/18 08:19:45;;;;;;;;;4.50;4.25;;;;;18.60;66.91;101256.19;5059952;28;45697;-87
2021/08/18 08:22:11;;;;;;;;;5.75;5.00;;;;;18.45;66.94;101232.75;5061324;28;45760;-87
2021/08/18 08:24:36;;;;;;;;;5.00;4.00;;;;;18.64;66.55;101254.91;5061146;28;46600;-86
2021/08/18 08:27:02;;;;;;;;;6.25;4.00;;;;;18.67;66.53;101242.22;5059274;28;45733;-88
2021/08/18 08:29:27;;;;;;;;;6.50;5.50;;;;;18.70;66.88;101247.22;5059970;28;45623;-87
2021/08/18 08:31:52;;;;;;;;;8.00;5.25;;;;;18.57;66.38;101220.16;5064480;28;45859;-88
2021/08/18 08:34:19;;;;;;;;;4.00;3.75;;;;;18.77;66.64;101252.78;5064206;28;46237;-86
2021/08/18 08:36:45;;;;;;;;;6.00;5.50;;;;;18.74;66.72;101237.13;5064009;28;46355;-88
2021/08/18 08:39:10;;;;;;;;;5.75;5.00;;;;;18.86;66.39;101255.41;5063297;28;45689;-88
2021/08/18 08:45:00;;;;;;;;;6.75;5.25;;;;;18.93;66.25;101252.16;5058997;28;45977;-86
2021/08/18 08:47:27;;;;;;;;;4.00;4.00;;;;;18.95;66.62;101258.16;5041101;28;48141;-86
2021/08/18 08:49:53;;;;;;;;;5.25;4.25;;;;;18.97;65.75;101270.31;5061489;28;45682;-87
2021/08/18 08:52:18;;;;;;;;;3.50;3.50;;;;;18.96;65.64;101262.47;5058541;28;45626;-81
2021/08/18 08:54:44;;;;;;;;;6.00;4.25;;;;;18.98;65.95;101271.97;5056931;28;46548;-83
2021/08/18 08:57:11;;;;;;;;;6.50;5.00;;;;;18.99;65.56;101268.34;5055843;28;45569;-81
2021/08/18 08:59:37;;;;;;;;;5.50;5.50;;;;;19.00;65.40;101258.56;5056157;28;45767;-83
2021/08/18 09:02:10;;;;;;;;;6.00;6.00;;;;;19.04;65.68;101270.56;5056302;28;45688;-86
2021/08/18 09:04:37;;;;;;;;;4.75;4.75;;;;;19.05;65.59;101269.59;5057328;28;46938;-87
2021/08/18 09:07:14;;;;;;;;;6.50;5.75;;;;;19.07;65.64;101260.47;5056425;28;46333;-87
2021/08/18 09:16:20;;;;;;;;;5.25;5.25;;;;;19.11;65.02;101253.88;5058773;28;46074;-88
2021/08/18 09:18:48;;;;;;;;;6.50;6.25;;;;;19.18;64.93;101259.44;5041539;28;48192;-86
2021/08/18 09:21:36;;;;;;;;;6.25;5.25;;;;;19.17;64.71;101258.59;5057954;28;45771;-89
2021/08/18 09:24:11;;;;;;;;;5.00;5.00;;;;;19.27;64.53;101259.38;5039156;28;45568;-85
2021/08/18 09:29:58;;;;;;;;;4.00;4.00;;;;;19.36;64.28;101254.16;5058053;28;45977;-89
2021/08/18 09:32:38;;;;;;;;;5.00;5.00;;;;;19.29;64.34;101241.47;5057890;28;45708;-86
2021/08/18 09:35:10;;;;;;;;;5.50;5.50;;;;;19.45;64.46;101269.22;5057396;28;46078;-86
2021/08/18 09:37:38;;;;;;;;;5.25;5.00;;;;;19.47;64.16;101259.28;5057322;28;45601;-89
2021/08/18 09:40:31;;;;;;;;;4.50;4.00;;;;;19.48;64.25;101239.69;5058997;28;46238;-87
2021/08/18 09:43:08;;;;;;;;;3.75;3.00;;;;;19.61;63.97;101243.66;5058320;28;45760;-88
2021/08/18 09:45:34;;;;;;;;;2.25;2.00;;;;;19.66;63.38;101245.84;5041660;28;45927;-90
2021/08/18 09:48:01;;;;;;;;;3.75;3.75;;;;;19.74;63.36;101253.06;5060828;28;45594;-88
2021/08/18 09:50:39;;;;;;;;;2.75;2.75;;;;;19.78;63.41;101249.94;5058530;28;46933;-87
2021/08/18 09:53:07;;;;;;;;;5.00;4.00;;;;;19.65;62.97;101221.06;5059099;28;45847;-87
2021/08/18 09:55:33;;;;;;;;;4.00;2.25;;;;;19.84;62.99;101257.31;5065349;28;45773;-91
2021/08/18 09:57:59;;;;;;;;;2.50;2.50;;;;;19.81;63.34;101256.78;5064247;28;45681;-90
2021/08/18 10:00:25;;;;;;;;;2.00;2.00;;;;;19.79;63.44;101256.09;5063318;28;45881;-89
2021/08/18 10:02:52;;;;;;;;;2.50;2.50;;;;;19.78;63.14;101251.75;5059071;28;45511;-85
2021/08/18 10:05:17;;;;;;;;;2.25;2.00;;;;;19.65;63.15;101228.22;5060654;28;45586;-88
2021/08/18 10:07:44;;;;;;;;;3.25;3.00;;;;;19.79;63.27;101251.63;5063290;28;47171;-89
2021/08/18 10:10:10;;;;;;;;;2.50;2.25;;;;;19.72;62.97;101242.56;5062359;28;46129;-86
2021/08/18 10:12:36;;;;;;;;;4.00;2.00;;;;;19.74;63.38;101245.09;5063060;28;45634;-88
2021/08/18 10:15:04;;;;;;;;;4.25;3.00;;;;;19.78;63.17;101243.78;5065929;28;45500;-86
2021/08/18 10:17:31;;;;;;;;;2.25;1.75;;;;;19.75;63.06;101239.63;5068198;28;45685;-84
2021/08/18 10:19:57;;;;;;;;;1.25;1.25;;;;;19.80;62.50;101250.63;5068868;28;46527;-85
2021/08/18 10:22:27;;;;;;;;;1.50;1.00;;;;;19.82;62.85;101245.16;5078899;28;45329;-78
2021/08/18 10:24:53;;;;;;;;;2.00;2.00;;;;;19.87;62.65;101245.53;5079490;28;45317;-82
2021/08/18 10:30:50;;;;;;;;;4.75;2.00;;;;;19.99;62.50;101236.31;5068365;28;45873;-80
2021/08/18 10:33:53;;;;;;;;;4.00;3.00;;;;;20.07;62.47;101233.75;5062287;28;45577;-80
2021/08/18 10:36:43;;;;;;;;;1.25;1.25;;;;;20.14;62.26;101232.09;5060740;28;45630;-79
2021/08/18 10:39:18;;;;;;;;;3.75;3.00;;;;;20.20;62.27;101231.47;5056699;28;46420;-81
2021/08/18 10:41:55;;;;;;;;;1.25;1.25;;;;;20.25;62.49;101239.00;5055141;28;46514;-79
2021/08/18 10:44:36;;;;;;;;;0.75;0.75;;;;;20.28;62.00;101236.03;5055010;28;45700;-78
2021/08/18 10:47:14;;;;;;;;;1.50;1.50;;;;;20.31;61.88;101231.25;5054622;28;45724;-79
2021/08/18 10:49:39;;;;;;;;;2.00;2.00;;;;;20.23;61.95;101217.88;5054381;28;45828;-79
2021/08/18 10:52:05;;;;;;;;;3.50;3.00;;;;;20.34;61.54;101222.97;5036595;28;46856;-81
2021/08/18 10:54:31;;;;;;;;;4.00;4.00;;;;;20.46;61.48;101228.84;5070479;28;45639;-81
2021/08/18 10:56:58;;;;;;;;;3.00;3.00;;;;;20.44;61.40;101213.06;5070164;28;45893;-78
2021/08/18 10:59:36;;;;;;;;;4.00;4.00;;;;;20.58;61.36;101230.25;5054689;28;45677;-78
2021/08/18 11:02:08;;;;;;;;;4.50;4.50;;;;;20.62;61.33;101223.59;5055192;28;46897;-79
2021/08/18 11:04:46;;;;;;;;;4.00;4.00;;;;;20.66;61.27;101219.66;5057301;28;45673;-79
2021/08/18 11:07:13;;;;;;;;;5.00;5.00;;;;;20.68;61.14;101220.31;5057271;28;45624;-82
2021/08/18 11:09:56;;;;;;;;;4.00;3.75;;;;;20.72;61.25;101210.19;5057121;28;45649;-80
2021/08/18 11:12:40;;;;;;;;;5.25;5.00;;;;;20.75;61.01;101208.03;5057294;28;45958;-82
2021/08/18 11:15:17;;;;;;;;;5.50;4.75;;;;;20.80;60.99;101211.06;5056919;28;45618;-81
2021/08/18 11:17:43;;;;;;;;;6.00;6.00;;;;;20.76;60.99;101198.22;5057361;28;45753;-80
2021/08/18 11:20:12;;;;;;;;;6.00;5.00;;;;;20.88;60.88;101208.44;5057093;28;46457;-80
2021/08/18 11:22:37;;;;;;;;;5.75;5.50;;;;;20.93;60.63;101210.59;5056596;28;46245;-82
2021/08/18 11:25:03;;;;;;;;;6.50;6.25;;;;;21.01;60.56;101201.78;5056548;28;45620;-81
2021/08/18 11:27:29;;;;;;;;;5.00;5.00;;;;;21.07;60.69;101203.81;5056386;28;45866;-80
2021/08/18 11:29:56;;;;;;;;;6.00;5.50;;;;;21.11;60.27;101202.47;5056601;28;46596;-82
2021/08/18 11:32:27;;;;;;;;;9.00;7.25;;;;;21.07;60.09;101212.63;5057784;28;45913;-80
2021/08/18 11:34:52;;;;;;;;;6.50;5.50;;;;;21.14;60.05;101203.03;5057986;28;45735;-79
2021/08/18 11:37:19;;;;;;;;;7.25;7.00;;;;;21.16;59.79;101205.56;5057587;28;45563;-79
2021/08/18 11:39:49;;;;;;;;;7.50;6.75;;;;;21.17;59.37;101207.19;5056997;28;46772;-80
2021/08/18 11:42:19;;;;;;;;;7.50;5.75;;;;;21.12;59.51;101202.31;5057282;28;46158;-81
2021/08/18 11:44:46;;;;;;;;;7.50;7.50;;;;;21.17;59.10;101209.88;5038091;28;45581;-79
2021/08/18 11:47:17;;;;;;;;;7.50;7.00;;;;;21.16;59.16;101208.22;5056581;28;45796;-79
2021/08/18 11:49:46;;;;;;;;;7.50;7.50;;;;;21.12;58.77;101205.00;5056316;28;45811;-80
2021/08/18 11:52:19;;;;;;;;;7.25;6.75;;;;;21.06;59.16;101186.97;5056267;28;46252;-81
2021/08/18 11:55:16;;;;;;;;;8.00;8.00;;;;;21.14;58.82;101195.03;5056194;28;45672;-80
2021/08/18 11:57:41;;;;;;;;;10.00;8.50;;;;;21.15;59.18;101186.06;5013858;28;45669;-79
2021/08/18 12:00:07;;;;;;;;;7.50;7.00;;;;;21.17;59.07;101185.88;5013804;28;47222;-79
2021/08/18 12:02:34;;;;;;;;;9.00;8.25;;;;;21.22;59.29;101180.88;5013697;28;45844;-78
2021/08/18 12:05:02;;;;;;;;;7.25;6.00;;;;;21.30;58.81;101207.56;5013861;28;45695;-81
2021/08/18 12:07:32;;;;;;;;;12.00;10.00;;;;;21.33;58.47;101196.56;5014145;28;45604;-78
2021/08/18 12:10:13;;;;;;;;;7.50;6.00;;;;;21.36;58.67;101185.59;4997129;28;48844;-80
2021/08/18 12:12:39;;;;;;;;;6.50;5.50;;;;;21.37;58.36;101191.75;5014234;28;45867;-79
2021/08/18 12:15:13;;;;;;;;;7.50;6.00;;;;;21.36;58.63;101190.94;5012616;28;45687;-80
2021/08/18 12:17:40;;;;;;;;;8.00;7.50;;;;;21.38;58.03;101188.09;5014896;28;45985;-79
2021/08/18 12:20:30;;;;;;;;;8.00;6.00;;;;;21.35;58.14;101200.75;5014568;28;45750;-81
2021/08/18 12:22:59;;;;;;;;;9.75;7.50;;;;;21.34;57.99;101190.25;5014832;28;46085;-80
2021/08/18 12:25:30;;;;;;;;;7.00;6.75;;;;;21.30;58.16;101187.09;5014115;28;45812;-81
2021/08/18 12:28:16;;;;;;;;;5.75;5.25;;;;;21.30;58.16;101188.91;5014221;28;45771;-80
2021/08/18 12:31:01;;;;;;;;;7.00;6.00;;;;;21.30;58.39;101192.41;5013995;28;46697;-81
2021/08/18 12:33:28;;;;;;;;;6.00;6.00;;;;;21.19;58.72;101168.75;5028990;28;46691;-80
2021/08/18 12:36:17;;;;;;;;;6.75;6.75;;;;;21.35;58.12;101190.09;5043013;28;45811;-79
2021/08/18 12:38:53;;;;;;;;;7.25;6.75;;;;;21.32;58.00;101174.41;5063464;28;45735;-81
2021/08/18 12:44:39;;;;;;;;;5.25;5.25;;;;;21.48;58.13;101184.28;5062492;28;45834;-81